Time;durP1;ratioP1;P1;durP2;ratioP2;P2;SDS_P1;SDS_P2;PMS_P1;PMS_P2;Temp;Humidity;BMP_temperature;BMP_pressure;BME280_temperature;BME280_humidity;BME280_pressure;Samples;Min_cycle;Max_cycle;Signal;HPM_P1;HPM_P2
2023/09/09 00:10:22;;;;;;;17;14;;;;;;;14.24;89.87;;;;;
2023/09/09 00:20:22;;;;;;;17;14;;;;;;;14.11;89.52;;;;;
2023/09/09 00:31:22;;;;;;;17;14;;;;;;;13.95;89.2;;;;;
2023/09/09 00:42:22;;;;;;;15.1;11.4;;;;;;;13.8;89.64;;;;;
2023/09/09 00:53:22;;;;;;;15.1;11.4;;;;;;;13.83;90.86;;;;;
2023/09/09 01:04:22;;;;;;;15.1;11.4;;;;;;;13.73;90.93;;;;;
2023/09/09 01:15:22;;;;;;;14.4;11.6;;;;;;;13.64;90.85;;;;;
2023/09/09 01:25:22;;;;;;;14.4;11.6;;;;;;;13.58;91.68;;;;;
2023/09/09 01:36:22;;;;;;;17;9.5;;;;;;;13.54;92.01;;;;;
2023/09/09 01:46:22;;;;;;;17;9.5;;;;;;;13.49;91.76;;;;;
2023/09/09 01:56:22;;;;;;;17;9.5;;;;;;;13.44;91.71;;;;;
2023/09/09 02:07:22;;;;;;;17.8;11.5;;;;;;;13.38;91.55;;;;;
2023/09/09 02:17:23;;;;;;;17.8;11.5;;;;;;;13.4;91.9;;;;;
2023/09/09 02:28:22;;;;;;;17.8;11.5;;;;;;;13.36;91.31;;;;;
2023/09/09 02:39:22;;;;;;;14.9;10;;;;;;;13.18;90.57;;;;;
2023/09/09 02:50:22;;;;;;;14.9;10;;;;;;;12.98;90.75;;;;;
2023/09/09 03:00:22;;;;;;;14.9;10;;;;;;;12.94;91.62;;;;;
2023/09/09 03:11:22;;;;;;;13.4;9.7;;;;;;;12.92;91.43;;;;;
2023/09/09 03:21:22;;;;;;;13.4;9.7;;;;;;;12.82;91.18;;;;;
2023/09/09 03:32:22;;;;;;;13.4;9.7;;;;;;;12.74;91.23;;;;;
2023/09/09 03:42:22;;;;;;;17;11.3;;;;;;;12.7;91.09;;;;;
2023/09/09 03:53:22;;;;;;;17;11.3;;;;;;;12.61;90.73;;;;;
2023/09/09 04:04:22;;;;;;;17;11.3;;;;;;;12.51;90.56;;;;;
2023/09/09 04:14:22;;;;;;;16.8;10.3;;;;;;;12.42;90.36;;;;;
2023/09/09 04:24:22;;;;;;;16.8;10.3;;;;;;;12.3;90.57;;;;;
2023/09/09 04:34:22;;;;;;;16.8;10.3;;;;;;;12.32;91.06;;;;;
2023/09/09 04:44:22;;;;;;;14;9.2;;;;;;;12.38;91.34;;;;;
2023/09/09 04:55:22;;;;;;;14;9.2;;;;;;;12.61;91.49;;;;;
2023/09/09 05:05:22;;;;;;;15.7;10.9;;;;;;;12.87;91.8;;;;;
2023/09/09 05:16:22;;;;;;;15.7;10.9;;;;;;;13.29;91.9;;;;;
2023/09/09 05:27:22;;;;;;;15.7;10.9;;;;;;;13.74;91.97;;;;;
2023/09/09 05:37:22;;;;;;;18.8;12;;;;;;;14.24;91.73;;;;;
2023/09/09 05:47:22;;;;;;;18.8;12;;;;;;;14.7;91.29;;;;;
2023/09/09 05:57:22;;;;;;;18.8;12;;;;;;;15.14;90.74;;;;;
2023/09/09 06:08:22;;;;;;;19;15.6;;;;;;;15.61;90.18;;;;;
2023/09/09 06:19:22;;;;;;;19;15.6;;;;;;;16.07;89.58;;;;;
2023/09/09 06:29:22;;;;;;;19;15.6;;;;;;;16.4;88.91;;;;;
2023/09/09 06:40:22;;;;;;;18.7;16.3;;;;;;;16.7;88.61;;;;;
2023/09/09 06:51:23;;;;;;;18.7;16.3;;;;;;;16.99;87.03;;;;;
2023/09/09 07:01:22;;;;;;;18.7;16.3;;;;;;;17.27;87.65;;;;;
2023/09/09 07:11:22;;;;;;;23.3;18.2;;;;;;;17.87;85.21;;;;;
2023/09/09 07:22:22;;;;;;;23.3;18.2;;;;;;;18.52;85.54;;;;;
2023/09/09 07:32:22;;;;;;;23.3;18.2;;;;;;;18.94;83.7;;;;;
2023/09/09 07:42:22;;;;;;;21.6;18.6;;;;;;;19.52;82.77;;;;;
2023/09/09 09:20:53;;;;;;;13.7;11.7;;;;;;;23.34;70.28;;;;;
2023/09/09 09:30:52;;;;;;;13.7;11.7;;;;;;;23.58;70.14;;;;;
2023/09/09 09:40:51;;;;;;;16.3;12.5;;;;;;;23.83;69.73;;;;;
2023/09/09 09:50:52;;;;;;;16.3;12.5;;;;;;;23.95;66.55;;;;;
2023/09/09 10:01:51;;;;;;;16.3;12.5;;;;;;;24.73;65.33;;;;;
2023/09/09 10:11:51;;;;;;;9.9;8.5;;;;;;;24.12;62.22;;;;;
2023/09/09 10:22:57;;;;;;;9.9;8.5;;;;;;;24.3;60.19;;;;;
2023/09/09 10:32:51;;;;;;;9.9;8.5;;;;;;;24.49;60.42;;;;;
2023/09/09 10:43:52;;;;;;;10;7;;;;;;;24.88;57.44;;;;;
2023/09/09 10:54:51;;;;;;;10;7;;;;;;;25.13;57.37;;;;;
2023/09/09 11:04:52;;;;;;;10;7;;;;;;;25.57;56.57;;;;;
2023/09/09 11:15:52;;;;;;;9.3;6.2;;;;;;;25.95;60.46;;;;;
2023/09/09 11:26:51;;;;;;;9.3;6.2;;;;;;;26.34;56.22;;;;;
2023/09/09 11:36:52;;;;;;;8.4;5.8;;;;;;;26.23;53.89;;;;;
2023/09/09 11:47:52;;;;;;;8.4;5.8;;;;;;;26.62;53.94;;;;;
2023/09/09 11:57:52;;;;;;;8.4;5.8;;;;;;;26.87;52.7;;;;;
2023/09/09 12:07:52;;;;;;;7.8;5.5;;;;;;;26.52;50.96;;;;;
2023/09/09 12:17:52;;;;;;;7.8;5.5;;;;;;;26.89;50.57;;;;;
2023/09/09 12:28:52;;;;;;;7.8;5.5;;;;;;;27.27;51.16;;;;;
2023/09/09 12:39:52;;;;;;;8;5.6;;;;;;;27.32;49.67;;;;;
2023/09/09 12:49:52;;;;;;;8;5.6;;;;;;;27.51;49.56;;;;;
2023/09/09 12:59:52;;;;;;;8;5.6;;;;;;;27.77;48.64;;;;;
2023/09/09 13:10:52;;;;;;;9.2;5.5;;;;;;;27.54;49.83;;;;;
2023/09/09 13:21:52;;;;;;;9.2;5.5;;;;;;;27.77;48.25;;;;;
2023/09/09 13:32:52;;;;;;;9.2;5.5;;;;;;;27.17;49.99;;;;;
2023/09/09 13:43:52;;;;;;;8.4;6;;;;;;;27.37;50.25;;;;;
2023/09/09 13:54:52;;;;;;;8.4;6;;;;;;;27.15;52.13;;;;;
2023/09/09 14:04:52;;;;;;;8.4;6;;;;;;;27.34;51.43;;;;;
2023/09/09 14:15:52;;;;;;;9.5;7.3;;;;;;;27.49;50.72;;;;;
2023/09/09 14:26:51;;;;;;;9.5;7.3;;;;;;;27.55;51.35;;;;;
2023/09/09 14:36:52;;;;;;;12.1;6.6;;;;;;;27.45;51.33;;;;;
2023/09/09 14:46:52;;;;;;;12.1;6.6;;;;;;;27.51;52.06;;;;;
2023/09/09 14:57:52;;;;;;;12.1;6.6;;;;;;;26.79;54.33;;;;;
2023/09/09 15:07:52;;;;;;;11.2;6.1;;;;;;;26.91;52.3;;;;;
2023/09/09 15:17:52;;;;;;;11.2;6.1;;;;;;;27.18;53.34;;;;;
2023/09/09 15:28:52;;;;;;;11.2;6.1;;;;;;;26.66;53.73;;;;;
2023/09/09 15:38:52;;;;;;;9.6;6.5;;;;;;;26.06;56.02;;;;;
2023/09/09 15:49:52;;;;;;;9.6;6.5;;;;;;;26.08;56.29;;;;;
2023/09/09 15:59:52;;;;;;;9.6;6.5;;;;;;;26.31;56.55;;;;;
2023/09/09 16:10:52;;;;;;;9.7;6.7;;;;;;;25.85;57.82;;;;;
2023/09/09 16:20:52;;;;;;;9.7;6.7;;;;;;;25.82;58.5;;;;;
2023/09/09 16:31:52;;;;;;;9.7;6.7;;;;;;;25.01;60.83;;;;;
2023/09/09 16:42:52;;;;;;;11.1;7.7;;;;;;;24.25;62.98;;;;;
2023/09/09 16:53:52;;;;;;;11.1;7.7;;;;;;;23.52;65.64;;;;;
2023/09/09 17:03:52;;;;;;;11.1;7.7;;;;;;;22.9;67.83;;;;;
2023/09/09 17:14:52;;;;;;;18.7;13.8;;;;;;;22.02;71.45;;;;;
2023/09/09 17:25:52;;;;;;;18.7;13.8;;;;;;;21.6;71.25;;;;;
2023/09/09 17:36:52;;;;;;;13.1;10.8;;;;;;;21.05;72.71;;;;;
2023/09/09 17:46:52;;;;;;;13.1;10.8;;;;;;;20.67;75.31;;;;;
2023/09/09 17:57:52;;;;;;;13.1;10.8;;;;;;;20.33;75.97;;;;;
2023/09/09 18:08:52;;;;;;;20.2;16.7;;;;;;;20.1;77.55;;;;;
2023/09/09 18:18:52;;;;;;;20.2;16.7;;;;;;;19.92;78.39;;;;;
2023/09/09 18:28:52;;;;;;;20.2;16.7;;;;;;;19.78;79.22;;;;;
2023/09/09 18:39:52;;;;;;;21.1;17.7;;;;;;;19.61;79.34;;;;;
2023/09/09 18:49:52;;;;;;;21.1;17.7;;;;;;;19.36;78.67;;;;;
2023/09/09 19:00:52;;;;;;;21.1;17.7;;;;;;;19.07;79.18;;;;;
2023/09/09 19:10:52;;;;;;;21.8;17.2;;;;;;;18.85;80.24;;;;;
2023/09/09 19:20:52;;;;;;;21.8;17.2;;;;;;;18.63;80.33;;;;;
2023/09/09 19:30:52;;;;;;;21.8;17.2;;;;;;;18.4;80.81;;;;;
2023/09/09 19:41:52;;;;;;;38.6;31.5;;;;;;;18.06;80.8;;;;;
2023/09/09 19:52:52;;;;;;;38.6;31.5;;;;;;;17.77;82.02;;;;;
2023/09/09 20:02:52;;;;;;;38.6;31.5;;;;;;;17.53;82.43;;;;;
2023/09/09 20:12:52;;;;;;;31.5;25.4;;;;;;;17.39;84.36;;;;;
2023/09/09 20:23:52;;;;;;;31.5;25.4;;;;;;;17.24;86.24;;;;;
2023/09/09 20:34:52;;;;;;;31.5;25.4;;;;;;;17.09;87.19;;;;;
2023/09/09 20:44:52;;;;;;;26.2;23.2;;;;;;;17.07;87.85;;;;;
2023/09/09 20:55:52;;;;;;;26.2;23.2;;;;;;;17.01;87.39;;;;;
2023/09/09 21:05:52;;;;;;;26.2;23.2;;;;;;;16.9;88.83;;;;;
2023/09/09 21:16:52;;;;;;;23.9;18.8;;;;;;;16.87;89.37;;;;;
2023/09/09 21:27:52;;;;;;;23.9;18.8;;;;;;;16.81;89.02;;;;;
2023/09/09 21:37:52;;;;;;;18.2;15;;;;;;;16.68;88.35;;;;;
2023/09/09 21:48:52;;;;;;;18.2;15;;;;;;;16.51;87.85;;;;;
2023/09/09 21:58:52;;;;;;;18.2;15;;;;;;;16.36;88.05;;;;;
2023/09/09 22:09:52;;;;;;;16.1;14.1;;;;;;;16.23;89.04;;;;;
2023/09/09 22:20:52;;;;;;;16.1;14.1;;;;;;;16.1;88.47;;;;;
2023/09/09 22:30:52;;;;;;;16.1;14.1;;;;;;;16;87.88;;;;;
2023/09/09 22:40:52;;;;;;;17.7;15.2;;;;;;;15.73;89.47;;;;;
2023/09/09 22:50:52;;;;;;;17.7;15.2;;;;;;;15.75;88.96;;;;;
2023/09/09 23:01:52;;;;;;;17.7;15.2;;;;;;;15.64;88.65;;;;;
2023/09/09 23:11:52;;;;;;;18.6;15.8;;;;;;;15.5;89.48;;;;;
2023/09/09 23:22:52;;;;;;;18.6;15.8;;;;;;;15.41;89.14;;;;;
2023/09/09 23:32:52;;;;;;;18.6;15.8;;;;;;;15.32;90.15;;;;;
2023/09/09 23:42:52;;;;;;;21;18.4;;;;;;;15.3;89.82;;;;;
2023/09/09 23:52:53;;;;;;;21;18.4;;;;;;;15.21;89.65;;;;;
